createdAt,value
2019-05-14T00:02:12.219Z,100852.84
2019-05-14T00:04:42.484Z,100846.16
2019-05-14T00:07:11.936Z,100843.70
2019-05-14T00:09:41.593Z,100845.10
2019-05-14T00:12:11.550Z,100841.87
2019-05-14T00:14:43.790Z,100845.26
2019-05-14T00:17:11.931Z,100843.86
2019-05-14T00:19:41.813Z,100843.86
2019-05-14T00:22:11.677Z,100848.31
2019-05-14T00:24:41.641Z,100845.42
2019-05-14T00:27:11.737Z,100840.97
2019-05-14T00:29:41.869Z,100842.09
2019-05-14T00:32:11.548Z,100833.78
2019-05-14T00:34:42.434Z,100832.38
2019-05-14T00:37:12.136Z,100834.64
2019-05-14T00:39:41.896Z,100834.67
2019-05-14T00:42:12.597Z,100834.52
2019-05-14T00:44:53.706Z,100824.97
2019-05-14T00:47:14.029Z,100825.99
2019-05-14T00:49:43.354Z,100819.89
2019-05-14T00:52:12.741Z,100812.30
2019-05-14T00:54:42.246Z,100817.92
2019-05-14T00:57:12.110Z,100818.61
2019-05-14T00:59:43.628Z,100814.64
2019-05-14T01:02:14.737Z,100814.44
2019-05-14T01:04:44.132Z,100820.78
2019-05-14T01:07:14.040Z,100824.66
2019-05-14T01:09:43.240Z,100822.08
2019-05-14T01:12:12.750Z,100817.91
2019-05-14T01:14:42.623Z,100816.56
2019-05-14T01:17:12.066Z,100814.30
2019-05-14T01:19:42.441Z,100815.84
2019-05-14T01:22:12.591Z,100809.31
2019-05-14T01:24:42.030Z,100804.81
2019-05-14T01:27:12.375Z,100794.30
2019-05-14T01:29:42.759Z,100796.01
2019-05-14T01:32:12.218Z,100787.41
2019-05-14T01:34:42.269Z,100797.13
2019-05-14T01:37:12.115Z,100796.44
2019-05-14T01:39:42.021Z,100788.05
2019-05-14T01:42:12.395Z,100794.38
2019-05-14T01:44:42.094Z,100802.94
2019-05-14T01:47:12.642Z,100806.32
2019-05-14T01:49:42.943Z,100802.39
2019-05-14T01:52:12.519Z,100800.38
2019-05-14T01:54:42.638Z,100800.08
2019-05-14T01:57:12.161Z,100803.84
2019-05-14T01:59:42.825Z,100796.73
2019-05-14T02:02:12.569Z,100795.41
2019-05-14T02:04:42.873Z,100793.45
2019-05-14T02:07:15.540Z,100795.23
2019-05-14T02:09:43.438Z,100801.56
2019-05-14T02:12:13.079Z,100801.95
2019-05-14T02:14:42.670Z,100800.53
2019-05-14T02:17:12.582Z,100796.84
2019-05-14T02:19:43.045Z,100790.22
2019-05-14T02:22:12.439Z,100791.25
2019-05-14T02:24:42.034Z,100790.73
2019-05-14T02:27:12.561Z,100787.50
2019-05-14T02:29:41.962Z,100782.37
2019-05-14T02:32:11.441Z,100787.34
2019-05-14T02:34:40.871Z,100784.78
2019-05-14T02:37:10.172Z,100788.20
2019-05-14T02:39:41.028Z,100782.48
2019-05-14T02:42:10.507Z,100780.22
2019-05-14T02:44:40.747Z,100779.37
2019-05-14T02:47:10.466Z,100782.77
2019-05-14T02:49:40.243Z,100776.01
2019-05-14T02:52:11.922Z,100778.94
2019-05-14T02:54:41.263Z,100769.14
2019-05-14T02:57:10.967Z,100775.34
2019-05-14T02:59:41.558Z,100780.02
2019-05-14T03:02:10.764Z,100775.98
2019-05-14T03:04:40.756Z,100769.88
2019-05-14T03:07:11.309Z,100764.12
2019-05-14T03:09:41.909Z,100760.62
2019-05-14T03:12:11.413Z,100763.19
2019-05-14T03:14:40.993Z,100758.04
2019-05-14T03:17:12.047Z,100759.86
2019-05-14T03:19:41.508Z,100754.34
2019-05-14T03:22:11.794Z,100749.70
2019-05-14T03:24:41.369Z,100747.27
2019-05-14T03:27:11.149Z,100752.16
2019-05-14T03:29:40.873Z,100745.30
2019-05-14T03:32:12.799Z,100746.98
2019-05-14T03:34:43.568Z,100749.20
2019-05-14T03:37:13.565Z,100738.64
2019-05-14T03:39:43.034Z,100734.11
2019-05-14T03:42:12.337Z,100743.31
2019-05-14T03:44:41.535Z,100755.31
2019-05-14T03:47:10.971Z,100751.20
2019-05-14T03:49:40.331Z,100753.64
2019-05-14T03:52:10.124Z,100746.19
2019-05-14T03:54:40.956Z,100733.81
2019-05-14T03:57:10.322Z,100731.22
2019-05-14T03:59:40.573Z,100736.97
2019-05-14T04:02:10.288Z,100741.28
2019-05-14T04:04:39.813Z,100734.05
2019-05-14T04:07:09.841Z,100731.20
2019-05-14T04:09:40.405Z,100725.38
2019-05-14T04:12:10.348Z,100729.18
2019-05-14T04:14:40.453Z,100733.30
2019-05-14T04:17:15.099Z,100729.26
2019-05-14T04:19:40.674Z,100734.04
2019-05-14T04:22:11.327Z,100730.78
2019-05-14T04:24:41.448Z,100721.59
2019-05-14T04:27:13.056Z,100724.49
2019-05-14T04:29:42.175Z,100717.94
2019-05-14T04:32:11.615Z,100718.49
2019-05-14T04:34:41.239Z,100715.12
2019-05-14T04:37:10.450Z,100717.66
2019-05-14T04:39:39.939Z,100717.63
2019-05-14T04:42:09.931Z,100724.36
2019-05-14T04:44:40.489Z,100723.75
2019-05-14T04:47:27.671Z,100724.74
2019-05-14T04:49:42.827Z,100723.25
2019-05-14T04:52:12.238Z,100729.97
2019-05-14T04:54:41.406Z,100728.05
2019-05-14T04:57:10.886Z,100725.93
2019-05-14T04:59:40.370Z,100730.84
2019-05-14T05:02:09.966Z,100723.74
2019-05-14T05:04:40.987Z,100725.72
2019-05-14T05:07:10.333Z,100727.20
2019-05-14T05:09:40.123Z,100722.03
2019-05-14T05:12:09.573Z,100716.55
2019-05-14T05:14:39.262Z,100717.20
2019-05-14T05:17:09.357Z,100717.07
2019-05-14T05:19:39.939Z,100710.98
2019-05-14T05:22:09.806Z,100706.23
2019-05-14T05:24:39.026Z,100706.49
2019-05-14T05:27:09.326Z,100701.53
2019-05-14T05:29:39.385Z,100703.12
2019-05-14T05:32:08.881Z,100697.14
2019-05-14T05:34:38.869Z,100700.73
2019-05-14T05:37:08.764Z,100705.98
2019-05-14T05:39:38.649Z,100709.30
2019-05-14T05:42:09.161Z,100714.52
2019-05-14T05:44:39.382Z,100718.00
2019-05-14T05:47:09.354Z,100715.59
2019-05-14T05:49:38.857Z,100717.42
2019-05-14T05:52:08.708Z,100713.66
2019-05-14T05:54:38.601Z,100712.64
2019-05-14T05:57:09.287Z,100716.70
2019-05-14T05:59:39.459Z,100722.13
2019-05-14T06:02:09.474Z,100721.36
2019-05-14T06:04:39.463Z,100727.94
2019-05-14T06:07:09.043Z,100725.92
2019-05-14T06:09:38.444Z,100719.79
2019-05-14T06:12:08.760Z,100720.71
2019-05-14T06:14:38.449Z,100716.66
2019-05-14T06:17:08.563Z,100717.73
2019-05-14T06:19:38.427Z,100712.69
2019-05-14T06:22:09.825Z,100706.45
2019-05-14T06:24:39.355Z,100707.77
2019-05-14T06:27:09.400Z,100713.31
2019-05-14T06:29:38.828Z,100720.30
2019-05-14T06:32:09.330Z,100716.66
2019-05-14T06:34:38.790Z,100719.09
2019-05-14T06:37:08.525Z,100708.12
2019-05-14T06:39:39.097Z,100703.08
2019-05-14T06:42:08.960Z,100696.49
2019-05-14T06:44:38.725Z,100700.00
2019-05-14T06:47:09.281Z,100699.23
2019-05-14T06:49:38.760Z,100701.08
2019-05-14T06:52:08.685Z,100691.58
2019-05-14T06:54:38.687Z,100697.78
2019-05-14T06:57:08.891Z,100701.85
2019-05-14T06:59:38.501Z,100708.35
2019-05-14T07:02:08.669Z,100700.47
2019-05-14T07:04:39.405Z,100694.76
2019-05-14T07:07:08.902Z,100695.69
2019-05-14T07:09:38.547Z,100691.16
2019-05-14T07:12:09.142Z,100695.27
2019-05-14T07:14:39.010Z,100695.52
2019-05-14T07:17:09.139Z,100695.38
2019-05-14T07:19:38.747Z,100691.91
2019-05-14T07:22:08.923Z,100700.09
2019-05-14T07:24:40.642Z,100690.92
2019-05-14T07:27:09.763Z,100694.41
2019-05-14T07:29:39.022Z,100696.54
2019-05-14T07:32:09.102Z,100698.08
2019-05-14T07:34:39.032Z,100695.61
2019-05-14T07:37:09.275Z,100695.13
2019-05-14T07:39:38.950Z,100700.77
2019-05-14T07:42:09.843Z,100697.13
2019-05-14T07:44:39.263Z,100690.11
2019-05-14T07:47:08.565Z,100688.55
2019-05-14T07:49:38.604Z,100692.78
2019-05-14T07:52:09.485Z,100688.78
2019-05-14T07:54:39.171Z,100686.76
2019-05-14T07:57:08.827Z,100689.03
2019-05-14T07:59:38.347Z,100684.80
2019-05-14T08:02:09.348Z,100679.95
2019-05-14T08:04:38.480Z,100682.08
2019-05-14T08:07:09.004Z,100677.24
2019-05-14T08:09:39.090Z,100669.65
2019-05-14T08:12:09.362Z,100673.39
2019-05-14T08:14:53.162Z,100671.84
2019-05-14T08:17:09.887Z,100664.52
2019-05-14T08:19:39.099Z,100667.23
2019-05-14T08:22:09.510Z,100668.00
2019-05-14T08:24:38.911Z,100661.84
2019-05-14T08:27:08.547Z,100660.05
2019-05-14T08:29:40.030Z,100655.91
2019-05-14T08:32:09.142Z,100659.28
2019-05-14T08:34:38.923Z,100654.55
2019-05-14T08:37:08.447Z,100659.60
2019-05-14T08:39:39.143Z,100660.77
2019-05-14T08:42:08.816Z,100658.41
2019-05-14T08:44:38.971Z,100662.86
2019-05-14T08:47:09.621Z,100649.38
2019-05-14T08:49:46.227Z,100659.28
2019-05-14T08:52:10.057Z,100654.42
2019-05-14T08:54:39.322Z,100649.44
2019-05-14T08:57:09.808Z,100656.60
2019-05-14T08:59:39.813Z,100653.55
2019-05-14T09:02:10.570Z,100653.05
2019-05-14T09:04:42.554Z,100659.23
2019-05-14T09:07:11.245Z,100665.09
2019-05-14T09:09:40.778Z,100661.00
2019-05-14T09:12:12.516Z,100660.98
2019-05-14T09:14:41.195Z,100651.55
2019-05-14T09:17:14.810Z,100654.13
2019-05-14T09:19:57.717Z,100655.11
2019-05-14T09:22:13.807Z,100648.00
2019-05-14T09:24:42.989Z,100650.58
2019-05-14T09:27:12.163Z,100651.19
2019-05-14T09:29:41.394Z,100644.80
2019-05-14T09:32:10.637Z,100649.39
2019-05-14T09:34:39.881Z,100652.52
2019-05-14T09:37:09.128Z,100653.27
2019-05-14T09:39:38.722Z,100651.81
2019-05-14T09:42:08.367Z,100651.64
2019-05-14T09:44:38.696Z,100658.60
2019-05-14T09:47:08.709Z,100647.27
2019-05-14T09:49:38.909Z,100650.00
2019-05-14T09:52:08.994Z,100638.62
2019-05-14T09:54:41.484Z,100640.07
2019-05-14T09:57:09.393Z,100636.22
2019-05-14T09:59:38.646Z,100634.63
2019-05-14T10:02:09.169Z,100637.06
2019-05-14T10:04:39.297Z,100635.42
2019-05-14T10:07:08.978Z,100640.89
2019-05-14T10:09:38.976Z,100639.23
2019-05-14T10:12:09.051Z,100632.91
2019-05-14T10:14:39.377Z,100639.17
2019-05-14T10:17:08.823Z,100638.62
2019-05-14T10:19:39.273Z,100636.30
2019-05-14T10:22:08.903Z,100637.84
2019-05-14T10:24:38.769Z,100632.20
2019-05-14T10:27:08.884Z,100639.19
2019-05-14T10:29:39.457Z,100639.38
2019-05-14T10:32:09.044Z,100631.52
2019-05-14T10:34:38.393Z,100633.30
2019-05-14T10:37:08.623Z,100634.52
2019-05-14T10:39:39.190Z,100634.86
2019-05-14T10:42:09.073Z,100630.59
2019-05-14T10:44:38.953Z,100621.64
2019-05-14T10:47:09.469Z,100626.22
2019-05-14T10:49:39.052Z,100625.27
2019-05-14T10:52:08.486Z,100633.49
2019-05-14T10:54:40.203Z,100625.71
2019-05-14T10:57:09.806Z,100629.38
2019-05-14T10:59:39.281Z,100633.20
2019-05-14T11:02:12.056Z,100628.70
2019-05-14T11:04:39.916Z,100625.61
2019-05-14T11:07:09.262Z,100637.26
2019-05-14T11:09:38.625Z,100626.73
2019-05-14T11:12:09.027Z,100616.83
2019-05-14T11:14:38.943Z,100606.97
2019-05-14T11:17:11.908Z,100610.31
2019-05-14T11:19:39.448Z,100607.97
2019-05-14T11:22:08.854Z,100604.77
2019-05-14T11:24:38.698Z,100610.76
2019-05-14T11:27:08.148Z,100608.97
2019-05-14T11:29:38.693Z,100615.88
2019-05-14T11:32:09.734Z,100607.58
2019-05-14T11:34:39.391Z,100604.71
2019-05-14T11:37:08.871Z,100614.17
2019-05-14T11:39:38.289Z,100612.20
2019-05-14T11:42:08.579Z,100593.67
2019-05-14T11:44:38.359Z,100600.34
2019-05-14T11:47:09.122Z,100597.89
2019-05-14T11:49:38.789Z,100598.19
2019-05-14T11:52:11.544Z,100594.59
2019-05-14T11:54:40.937Z,100588.09
2019-05-14T11:57:11.582Z,100594.42
2019-05-14T11:59:41.446Z,100583.89
2019-05-14T12:02:10.854Z,100592.22
2019-05-14T12:04:40.127Z,100584.77
2019-05-14T12:07:09.860Z,100599.16
2019-05-14T12:09:39.430Z,100597.27
2019-05-14T12:12:12.342Z,100583.02
2019-05-14T12:14:39.883Z,100586.00
2019-05-14T12:17:09.691Z,100586.06
2019-05-14T12:19:43.271Z,100584.90
2019-05-14T12:22:11.918Z,100587.42
2019-05-14T12:24:41.411Z,100585.69
2019-05-14T12:27:11.067Z,100595.75
2019-05-14T12:29:40.323Z,100590.88
2019-05-14T12:32:12.942Z,100594.02
2019-05-14T12:34:40.791Z,100596.59
2019-05-14T12:37:10.055Z,100592.92
2019-05-14T12:39:39.419Z,100593.88
2019-05-14T12:42:10.565Z,100585.98
2019-05-14T12:44:40.882Z,100586.80
2019-05-14T12:47:10.428Z,100584.22
2019-05-14T12:49:39.810Z,100586.14
2019-05-14T12:52:19.030Z,100587.16
2019-05-14T12:54:40.066Z,100587.25
2019-05-14T12:57:09.540Z,100585.66
2019-05-14T12:59:38.723Z,100582.17
2019-05-14T13:02:09.647Z,100585.41
2019-05-14T13:04:39.310Z,100577.06
2019-05-14T13:07:09.308Z,100568.20
2019-05-14T13:09:38.766Z,100565.94
2019-05-14T13:12:11.334Z,100567.25
2019-05-14T13:14:39.623Z,100569.72
2019-05-14T13:17:09.391Z,100575.46
2019-05-14T13:19:38.788Z,100569.98
2019-05-14T13:22:13.509Z,100562.72
2019-05-14T13:24:39.584Z,100550.66
2019-05-14T13:27:09.611Z,100548.48
2019-05-14T13:29:39.021Z,100543.70
2019-05-14T13:32:12.236Z,100552.70
2019-05-14T13:34:39.746Z,100532.11
2019-05-14T13:37:09.137Z,100543.95
2019-05-14T13:39:39.938Z,100542.55
2019-05-14T13:42:11.966Z,100540.20
2019-05-14T13:44:40.555Z,100539.73
2019-05-14T13:47:10.016Z,100544.36
2019-05-14T13:49:39.282Z,100540.30
2019-05-14T13:52:09.372Z,100530.42
2019-05-14T13:54:39.409Z,100527.28
2019-05-14T13:57:11.907Z,100522.54
2019-05-14T13:59:43.853Z,100523.67
2019-05-14T14:02:10.952Z,100516.69
2019-05-14T14:04:40.295Z,100516.47
2019-05-14T14:07:09.684Z,100515.78
2019-05-14T14:09:39.702Z,100509.42
2019-05-14T14:12:09.034Z,100509.56
2019-05-14T14:14:38.789Z,100511.23
2019-05-14T14:17:08.217Z,100501.13
2019-05-14T14:19:38.894Z,100500.69
2019-05-14T14:22:09.969Z,100501.45
2019-05-14T14:24:39.607Z,100496.03
2019-05-14T14:27:09.275Z,100505.20
2019-05-14T14:29:39.640Z,100495.05
2019-05-14T14:32:11.336Z,100489.83
2019-05-14T14:34:41.271Z,100495.23
2019-05-14T14:37:10.949Z,100496.09
2019-05-14T14:39:40.187Z,100495.92
2019-05-14T14:42:09.366Z,100501.61
2019-05-14T14:44:39.292Z,100501.56
2019-05-14T14:47:08.742Z,100504.00
2019-05-14T14:49:42.912Z,100497.00
2019-05-14T14:52:12.125Z,100495.13
2019-05-14T14:54:40.889Z,100501.33
2019-05-14T14:57:10.672Z,100504.47
2019-05-14T14:59:40.171Z,100487.45
2019-05-14T15:02:10.378Z,100485.84
2019-05-14T15:04:40.027Z,100487.63
2019-05-14T15:07:10.005Z,100491.48
2019-05-14T15:09:40.509Z,100483.49
2019-05-14T15:12:10.076Z,100488.41
2019-05-14T15:14:39.841Z,100485.63
2019-05-14T15:17:09.809Z,100481.86
2019-05-14T15:19:39.769Z,100482.20
2019-05-14T15:22:09.142Z,100473.77
2019-05-14T15:24:38.483Z,100476.46
2019-05-14T15:27:14.862Z,100469.78
2019-05-14T15:29:42.809Z,100465.03
2019-05-14T15:32:10.427Z,100464.96
2019-05-14T15:34:39.691Z,100457.00
2019-05-14T15:37:09.166Z,100463.12
2019-05-14T15:39:39.128Z,100450.56
2019-05-14T15:42:13.757Z,100465.33
2019-05-14T15:44:48.856Z,100457.93
2019-05-14T15:47:11.707Z,100459.27
2019-05-14T15:49:41.209Z,100457.00
2019-05-14T15:52:10.573Z,100456.05
2019-05-14T15:54:46.659Z,100457.00
2019-05-14T15:57:11.209Z,100460.49
2019-05-14T15:59:40.480Z,100455.11
2019-05-14T16:02:09.908Z,100452.56
2019-05-14T16:04:39.224Z,100444.50
2019-05-14T16:07:09.451Z,100445.16
2019-05-14T16:09:39.697Z,100448.75
2019-05-14T16:12:09.627Z,100441.51
2019-05-14T16:14:39.248Z,100435.99
2019-05-14T16:17:11.492Z,100435.67
2019-05-14T16:19:39.651Z,100434.98
2019-05-14T16:22:09.796Z,100434.46
2019-05-14T16:24:55.718Z,100433.32
2019-05-14T16:27:11.616Z,100434.38
2019-05-14T16:29:45.601Z,100426.18
2019-05-14T16:32:12.020Z,100427.02
2019-05-14T16:34:41.562Z,100426.74
2019-05-14T16:37:11.364Z,100440.39
2019-05-14T16:39:40.610Z,100443.27
2019-05-14T16:42:09.814Z,100444.81
2019-05-14T16:44:39.218Z,100441.07
2019-05-14T16:47:09.920Z,100440.83
2019-05-14T16:49:39.474Z,100436.12
2019-05-14T16:52:09.312Z,100431.30
2019-05-14T16:54:39.484Z,100437.65
2019-05-14T16:57:11.172Z,100446.23
2019-05-14T16:59:40.269Z,100444.19
2019-05-14T17:02:09.531Z,100436.23
2019-05-14T17:04:38.930Z,100436.91
2019-05-14T17:07:09.521Z,100439.58
2019-05-14T17:09:39.022Z,100447.66
2019-05-14T17:12:08.655Z,100455.61
2019-05-14T17:14:38.633Z,100456.40
2019-05-14T17:17:09.106Z,100460.97
2019-05-14T17:19:38.785Z,100449.50
2019-05-14T17:22:24.489Z,100457.80
2019-05-14T17:24:39.949Z,100448.53
2019-05-14T17:27:09.498Z,100441.31
2019-05-14T17:29:39.151Z,100445.72
2019-05-14T17:32:08.527Z,100452.77
2019-05-14T17:34:38.623Z,100454.27
2019-05-14T17:37:08.911Z,100446.79
2019-05-14T17:39:38.837Z,100445.88
2019-05-14T17:42:11.690Z,100448.30
2019-05-14T17:44:39.260Z,100441.58
2019-05-14T17:47:08.457Z,100450.02
2019-05-14T17:49:39.097Z,100451.62
2019-05-14T17:52:08.608Z,100447.02
2019-05-14T17:54:41.673Z,100457.53
2019-05-14T17:57:08.844Z,100460.27
2019-05-14T17:59:39.045Z,100452.40
2019-05-14T18:02:08.807Z,100451.89
2019-05-14T18:04:38.039Z,100449.83
2019-05-14T18:07:08.552Z,100450.68
2019-05-14T18:09:37.870Z,100453.27
2019-05-14T18:12:08.219Z,100454.47
2019-05-14T18:14:38.563Z,100453.09
2019-05-14T18:17:08.939Z,100459.26
2019-05-14T18:19:38.262Z,100452.74
2019-05-14T18:22:08.902Z,100451.39
2019-05-14T18:24:41.187Z,100455.16
2019-05-14T18:27:10.671Z,100449.14
2019-05-14T18:29:40.178Z,100442.05
2019-05-14T18:32:09.361Z,100435.92
2019-05-14T18:34:39.165Z,100436.09
2019-05-14T18:37:13.782Z,100442.07
2019-05-14T18:39:39.703Z,100434.91
2019-05-14T18:42:09.022Z,100430.73
2019-05-14T18:44:39.146Z,100428.80
2019-05-14T18:47:08.797Z,100433.45
2019-05-14T18:49:38.269Z,100436.17
2019-05-14T18:52:08.924Z,100439.11
2019-05-14T18:54:38.769Z,100434.78
2019-05-14T18:57:11.982Z,100430.46
2019-05-14T18:59:39.288Z,100423.47
2019-05-14T19:02:08.803Z,100420.88
2019-05-14T19:04:38.287Z,100413.16
2019-05-14T19:07:07.475Z,100412.55
2019-05-14T19:09:38.879Z,100410.34
2019-05-14T19:12:08.273Z,100408.76
2019-05-14T19:14:38.968Z,100414.23
2019-05-14T19:17:09.110Z,100412.14
2019-05-14T19:19:38.821Z,100418.69
2019-05-14T19:22:08.153Z,100421.89
2019-05-14T19:24:38.266Z,100430.42
2019-05-14T19:27:09.078Z,100430.50
2019-05-14T19:29:38.874Z,100431.61
2019-05-14T19:32:08.316Z,100429.91
2019-05-14T19:34:38.209Z,100425.48
2019-05-14T19:37:08.421Z,100421.91
2019-05-14T19:39:40.681Z,100417.79
2019-05-14T19:42:09.876Z,100414.46
2019-05-14T19:44:40.413Z,100416.95
2019-05-14T19:47:09.796Z,100417.80
2019-05-14T19:49:39.059Z,100415.55
2019-05-14T19:52:08.521Z,100413.14
2019-05-14T19:54:38.481Z,100411.64
2019-05-14T19:57:10.034Z,100411.84
2019-05-14T19:59:39.999Z,100409.73
2019-05-14T20:02:09.653Z,100405.78
2019-05-14T20:04:39.092Z,100399.09
2019-05-14T20:07:08.935Z,100393.11
2019-05-14T20:09:38.800Z,100395.17
2019-05-14T20:12:08.241Z,100389.36
2019-05-14T20:14:38.250Z,100393.92
2019-05-14T20:17:08.899Z,100384.50
2019-05-14T20:19:39.641Z,100382.66
2019-05-14T20:22:09.037Z,100372.03
2019-05-14T20:24:41.653Z,100374.92
2019-05-14T20:27:12.349Z,100378.45
2019-05-14T20:29:40.336Z,100366.74
2019-05-14T20:32:09.585Z,100370.55
2019-05-14T20:34:38.764Z,100366.67
2019-05-14T20:37:08.603Z,100367.81
2019-05-14T20:39:39.083Z,100362.87
2019-05-14T20:42:09.146Z,100362.66
2019-05-14T20:44:38.811Z,100362.14
2019-05-14T20:47:09.146Z,100369.70
2019-05-14T20:49:38.587Z,100370.53
2019-05-14T20:52:08.642Z,100370.99
2019-05-14T20:54:37.993Z,100365.38
2019-05-14T20:57:22.575Z,100366.61
2019-05-14T20:59:38.890Z,100363.20
2019-05-14T21:02:08.541Z,100369.48
2019-05-14T21:04:37.896Z,100368.94
2019-05-14T21:07:08.352Z,100361.20
2019-05-14T21:09:38.708Z,100357.58
2019-05-14T21:12:08.463Z,100359.32
2019-05-14T21:14:41.069Z,100354.88
2019-05-14T21:17:08.700Z,100359.74
2019-05-14T21:19:38.156Z,100350.50
2019-05-14T21:22:08.372Z,100352.90
2019-05-14T21:24:39.279Z,100357.75
2019-05-14T21:27:09.289Z,100351.28
2019-05-14T21:29:39.018Z,100340.95
2019-05-14T21:32:08.440Z,100346.48
2019-05-14T21:34:38.338Z,100348.66
2019-05-14T21:37:09.031Z,100340.47
2019-05-14T21:39:41.045Z,100343.67
2019-05-14T21:42:10.893Z,100328.28
2019-05-14T21:44:40.359Z,100327.74
2019-05-14T21:47:09.617Z,100313.39
2019-05-14T21:49:39.150Z,100314.22
2019-05-14T21:52:09.063Z,100314.30
2019-05-14T21:54:39.474Z,100307.38
2019-05-14T21:57:11.839Z,100305.34
2019-05-14T21:59:39.934Z,100303.52
2019-05-14T22:02:21.490Z,100289.84
2019-05-14T22:04:40.714Z,100301.23
2019-05-14T22:07:09.967Z,100297.53
2019-05-14T22:09:41.311Z,100306.00
2019-05-14T22:12:10.212Z,100299.62
2019-05-14T22:14:39.417Z,100305.84
2019-05-14T22:17:08.775Z,100298.37
2019-05-14T22:19:38.540Z,100288.98
2019-05-14T22:22:08.124Z,100291.00
2019-05-14T22:24:38.320Z,100279.85
2019-05-14T22:27:09.413Z,100276.53
2019-05-14T22:29:38.811Z,100271.64
2019-05-14T22:32:08.294Z,100270.89
2019-05-14T22:34:38.389Z,100267.77
2019-05-14T22:37:08.443Z,100262.81
2019-05-14T22:39:39.089Z,100254.10
2019-05-14T22:42:09.256Z,100259.05
2019-05-14T22:44:38.693Z,100250.00
2019-05-14T22:47:08.177Z,100257.14
2019-05-14T22:49:37.494Z,100261.30
2019-05-14T22:52:08.378Z,100258.98
2019-05-14T22:54:38.648Z,100261.07
2019-05-14T22:57:08.234Z,100264.59
2019-05-14T22:59:39.223Z,100270.23
2019-05-14T23:02:11.332Z,100277.60
2019-05-14T23:04:39.299Z,100280.25
2019-05-14T23:07:08.741Z,100268.95
2019-05-14T23:09:38.697Z,100261.16
2019-05-14T23:12:12.016Z,100258.81
2019-05-14T23:14:39.204Z,100267.25
2019-05-14T23:17:08.510Z,100271.66
2019-05-14T23:19:37.784Z,100260.69
2019-05-14T23:22:07.101Z,100257.54
2019-05-14T23:24:38.710Z,100257.34
2019-05-14T23:27:08.273Z,100251.70
2019-05-14T23:29:38.508Z,100251.53
2019-05-14T23:32:08.215Z,100246.04
2019-05-14T23:34:38.076Z,100254.80
2019-05-14T23:37:08.194Z,100247.41
2019-05-14T23:39:38.343Z,100240.05
2019-05-14T23:42:09.131Z,100236.44
2019-05-14T23:44:38.755Z,100237.16
2019-05-14T23:47:08.358Z,100244.16
2019-05-14T23:49:38.925Z,100244.20
2019-05-14T23:52:08.362Z,100250.39
2019-05-14T23:54:38.584Z,100253.87
2019-05-14T23:57:08.888Z,100250.41
2019-05-14T23:59:39.675Z,100250.23
